createdAt,value
2019-03-31T00:02:34.274Z,34.13
2019-03-31T00:05:05.348Z,30.43
2019-03-31T00:07:36.095Z,33.57
2019-03-31T00:10:07.433Z,35.50
2019-03-31T00:12:38.203Z,33.27
2019-03-31T00:15:09.372Z,31.67
2019-03-31T00:17:40.163Z,31.50
2019-03-31T00:20:11.192Z,32.57
2019-03-31T00:22:43.913Z,34.93
2019-03-31T00:25:14.974Z,32.77
2019-03-31T00:27:47.353Z,31.30
2019-03-31T00:30:18.103Z,35.73
2019-03-31T00:32:48.864Z,32.50
2019-03-31T00:35:19.778Z,33.33
2019-03-31T00:37:50.616Z,31.63
2019-03-31T00:40:21.397Z,32.40
2019-03-31T00:42:52.196Z,31.13
2019-03-31T00:45:23.150Z,30.57
2019-03-31T00:47:53.941Z,33.57
2019-03-31T00:50:24.742Z,30.40
2019-03-31T00:52:55.513Z,35.10
2019-03-31T00:55:26.398Z,31.67
2019-03-31T00:57:57.192Z,35.20
2019-03-31T01:00:47.091Z,36.00
2019-03-31T01:03:21.667Z,30.90
2019-03-31T01:05:52.580Z,31.87
2019-03-31T01:08:25.031Z,36.37
2019-03-31T01:10:57.593Z,31.27
2019-03-31T01:13:28.670Z,35.63
2019-03-31T01:16:00.616Z,33.17
2019-03-31T01:18:31.468Z,33.70
2019-03-31T01:21:02.321Z,33.57
2019-03-31T01:23:33.186Z,34.70
2019-03-31T01:26:04.430Z,32.93
2019-03-31T01:28:35.423Z,32.10
2019-03-31T01:31:06.343Z,36.30
2019-03-31T01:33:37.584Z,37.07
2019-03-31T01:36:09.410Z,37.40
2019-03-31T01:38:40.258Z,30.50
2019-03-31T01:41:12.910Z,30.10
2019-03-31T01:43:43.661Z,34.20
2019-03-31T01:46:16.715Z,33.33
2019-03-31T01:48:47.677Z,33.27
2019-03-31T01:51:18.469Z,32.63
2019-03-31T01:53:49.242Z,39.13
2019-03-31T01:56:21.374Z,34.23
2019-03-31T01:58:52.220Z,34.53
2019-03-31T02:01:23.078Z,32.00
2019-03-31T02:03:53.931Z,32.70
2019-03-31T02:06:24.978Z,31.50
2019-03-31T02:08:55.742Z,33.93
2019-03-31T02:11:26.556Z,32.77
2019-03-31T02:13:57.401Z,31.83
2019-03-31T02:16:28.237Z,33.73
2019-03-31T02:18:58.993Z,40.47
2019-03-31T02:21:29.823Z,37.23
2019-03-31T02:24:00.627Z,36.53
2019-03-31T02:26:31.487Z,32.43
2019-03-31T02:29:02.520Z,34.53
2019-03-31T02:31:33.329Z,35.10
2019-03-31T02:34:04.083Z,35.07
2019-03-31T02:36:34.987Z,32.73
2019-03-31T02:39:06.400Z,35.10
2019-03-31T02:41:37.234Z,32.57
2019-03-31T02:44:09.043Z,33.97
2019-03-31T02:46:39.931Z,35.23
2019-03-31T02:49:10.683Z,32.47
2019-03-31T02:51:41.747Z,30.67
2019-03-31T02:54:14.271Z,29.93
2019-03-31T02:56:46.152Z,35.17
2019-03-31T02:59:18.547Z,31.47
2019-03-31T03:01:50.398Z,30.67
2019-03-31T03:04:23.164Z,34.60
2019-03-31T03:06:57.042Z,32.00
2019-03-31T03:09:28.874Z,34.80
2019-03-31T03:12:01.289Z,33.20
2019-03-31T03:14:34.816Z,31.27
2019-03-31T03:17:05.640Z,31.03
2019-03-31T03:19:36.433Z,33.33
2019-03-31T03:22:07.180Z,34.87
2019-03-31T03:24:38.013Z,30.03
2019-03-31T03:27:08.973Z,28.40
2019-03-31T03:29:39.859Z,28.57
2019-03-31T03:32:10.631Z,31.70
2019-03-31T03:34:41.463Z,30.33
2019-03-31T03:37:12.285Z,32.90
2019-03-31T03:39:43.063Z,28.30
2019-03-31T03:42:14.098Z,30.47
2019-03-31T03:44:44.888Z,31.33
2019-03-31T03:47:15.797Z,32.23
2019-03-31T03:49:46.586Z,28.00
2019-03-31T03:52:17.416Z,32.87
2019-03-31T03:54:48.143Z,31.17
2019-03-31T03:57:19.269Z,28.90
2019-03-31T03:59:50.054Z,33.47
2019-03-31T04:02:20.880Z,28.93
2019-03-31T04:04:51.628Z,33.07
2019-03-31T04:07:22.482Z,32.67
2019-03-31T04:09:53.293Z,29.57
2019-03-31T04:12:24.145Z,29.60
2019-03-31T04:14:54.919Z,31.87
2019-03-31T04:17:25.791Z,29.13
2019-03-31T04:19:56.572Z,32.30
2019-03-31T04:22:27.408Z,34.33
2019-03-31T04:24:58.162Z,27.77
2019-03-31T04:27:29.033Z,29.00
2019-03-31T04:30:00.611Z,30.63
2019-03-31T04:32:31.614Z,35.53
2019-03-31T04:35:02.422Z,27.43
2019-03-31T04:37:33.300Z,32.97
2019-03-31T04:40:04.368Z,34.23
2019-03-31T04:42:35.325Z,28.07
2019-03-31T04:45:07.561Z,34.80
2019-03-31T04:47:38.603Z,28.57
2019-03-31T04:50:09.588Z,32.03
2019-03-31T04:52:40.459Z,33.23
2019-03-31T04:55:11.194Z,31.97
2019-03-31T04:57:42.044Z,30.13
2019-03-31T05:00:12.902Z,35.07
2019-03-31T05:02:43.690Z,30.17
2019-03-31T05:05:14.577Z,27.80
2019-03-31T05:07:45.454Z,28.90
2019-03-31T05:10:16.224Z,28.97
2019-03-31T05:12:47.021Z,28.33
2019-03-31T05:15:17.781Z,29.90
2019-03-31T05:17:48.604Z,29.40
2019-03-31T05:20:20.482Z,27.57
2019-03-31T05:22:52.974Z,28.37
2019-03-31T05:25:23.912Z,25.33
2019-03-31T05:27:54.793Z,27.83
2019-03-31T05:30:25.937Z,27.27
2019-03-31T05:32:56.756Z,26.50
2019-03-31T05:35:27.544Z,24.80
2019-03-31T05:37:58.371Z,26.43
2019-03-31T05:40:30.833Z,26.70
2019-03-31T05:43:01.997Z,24.20
2019-03-31T05:45:32.754Z,22.57
2019-03-31T05:48:04.168Z,23.17
2019-03-31T05:50:35.033Z,23.00
2019-03-31T05:53:05.850Z,24.33
2019-03-31T05:55:36.743Z,20.60
2019-03-31T05:58:07.779Z,24.67
2019-03-31T06:00:44.089Z,22.27
2019-03-31T06:03:14.925Z,23.73
2019-03-31T06:05:46.810Z,25.83
2019-03-31T06:08:18.190Z,23.90
2019-03-31T06:10:49.091Z,26.60
2019-03-31T06:13:20.229Z,27.50
2019-03-31T06:15:51.026Z,24.67
2019-03-31T06:18:21.905Z,26.87
2019-03-31T06:20:52.761Z,27.23
2019-03-31T06:23:23.641Z,26.97
2019-03-31T06:25:54.398Z,25.77
2019-03-31T06:28:25.295Z,26.77
2019-03-31T06:30:56.924Z,26.47
2019-03-31T06:33:27.731Z,26.10
2019-03-31T06:35:58.711Z,29.80
2019-03-31T06:38:29.662Z,25.17
2019-03-31T06:41:03.945Z,29.97
2019-03-31T06:43:34.763Z,30.20
2019-03-31T06:46:05.633Z,33.03
2019-03-31T06:48:36.518Z,26.40
2019-03-31T06:51:07.424Z,30.17
2019-03-31T06:53:38.255Z,30.40
2019-03-31T06:56:09.144Z,28.83
2019-03-31T06:58:39.990Z,31.77
2019-03-31T07:01:10.893Z,30.37
2019-03-31T07:03:41.844Z,31.40
2019-03-31T07:06:12.705Z,33.40
2019-03-31T07:08:43.573Z,28.37
2019-03-31T07:11:14.503Z,32.20
2019-03-31T07:13:46.032Z,31.03
2019-03-31T07:16:16.860Z,32.10
2019-03-31T07:18:47.723Z,32.60
2019-03-31T07:21:18.614Z,32.97
2019-03-31T07:23:49.405Z,32.03
2019-03-31T07:26:21.335Z,33.00
2019-03-31T07:28:53.341Z,32.23
2019-03-31T07:31:24.854Z,32.17
2019-03-31T07:33:55.654Z,29.27
2019-03-31T07:36:26.495Z,33.07
2019-03-31T07:38:57.851Z,30.70
2019-03-31T07:41:28.861Z,31.67
2019-03-31T07:43:59.904Z,33.83
2019-03-31T07:46:30.781Z,35.13
2019-03-31T07:49:01.764Z,34.10
2019-03-31T07:51:33.572Z,39.07
2019-03-31T07:54:04.402Z,41.73
2019-03-31T07:56:35.271Z,37.40
2019-03-31T07:59:06.256Z,40.60
2019-03-31T08:01:38.174Z,38.47
2019-03-31T08:04:09.043Z,39.53
2019-03-31T08:07:19.927Z,36.37
2019-03-31T08:09:50.788Z,39.40
2019-03-31T08:12:21.673Z,33.07
2019-03-31T08:15:16.907Z,35.33
2019-03-31T08:17:50.597Z,40.30
2019-03-31T08:20:23.326Z,40.57
2019-03-31T08:22:56.990Z,41.10
2019-03-31T08:25:26.748Z,45.00
2019-03-31T08:27:57.561Z,41.03
2019-03-31T08:30:29.913Z,38.80
2019-03-31T08:33:03.284Z,46.23
2019-03-31T08:35:47.203Z,47.03
2019-03-31T08:38:16.210Z,45.50
2019-03-31T08:40:47.077Z,43.30
2019-03-31T08:43:17.908Z,42.97
2019-03-31T08:45:49.959Z,46.53
2019-03-31T08:48:20.778Z,40.20
2019-03-31T08:50:52.806Z,39.57
2019-03-31T08:53:23.706Z,40.17
2019-03-31T08:55:54.581Z,43.67
2019-03-31T08:58:27.375Z,44.07
2019-03-31T09:01:11.264Z,43.97
2019-03-31T09:03:51.972Z,45.13
2019-03-31T09:06:22.922Z,43.63
2019-03-31T09:09:01.447Z,47.00
2019-03-31T09:11:37.696Z,40.73
2019-03-31T09:14:08.606Z,42.60
2019-03-31T09:16:39.567Z,45.27
2019-03-31T09:19:10.454Z,46.17
2019-03-31T09:21:41.308Z,45.50
2019-03-31T09:24:12.569Z,49.73
2019-03-31T09:26:43.360Z,41.90
2019-03-31T09:29:16.559Z,46.80
2019-03-31T09:31:47.762Z,45.77
2019-03-31T09:34:18.911Z,48.97
2019-03-31T09:36:49.740Z,50.27
2019-03-31T09:39:20.531Z,47.03
2019-03-31T09:41:51.897Z,49.10
2019-03-31T09:44:24.224Z,46.83
2019-03-31T09:46:55.380Z,45.63
2019-03-31T09:49:26.203Z,49.40
2019-03-31T09:51:57.277Z,44.10
2019-03-31T09:54:28.218Z,47.33
2019-03-31T09:57:03.529Z,46.43
2019-03-31T09:59:35.500Z,50.30
2019-03-31T10:02:06.943Z,51.30
2019-03-31T10:04:37.907Z,51.50
2019-03-31T10:07:08.730Z,44.43
2019-03-31T10:09:40.286Z,48.70
2019-03-31T10:12:12.000Z,45.17
2019-03-31T10:14:43.007Z,47.00
2019-03-31T10:17:13.880Z,46.87
2019-03-31T10:19:44.800Z,48.30
2019-03-31T10:22:15.759Z,51.03
2019-03-31T10:24:46.823Z,45.13
2019-03-31T10:27:18.287Z,46.43
2019-03-31T10:29:49.125Z,46.20
2019-03-31T10:32:20.939Z,46.30
2019-03-31T10:34:52.113Z,47.33
2019-03-31T10:37:22.972Z,49.03
2019-03-31T10:39:53.841Z,51.67
2019-03-31T10:42:25.203Z,49.47
2019-03-31T10:44:56.090Z,50.37
2019-03-31T10:47:27.078Z,51.63
2019-03-31T10:49:57.891Z,47.77
2019-03-31T10:52:28.727Z,52.60
2019-03-31T10:54:59.644Z,53.83
2019-03-31T10:57:30.510Z,56.87
2019-03-31T11:00:01.401Z,52.20
2019-03-31T11:02:32.344Z,49.90
2019-03-31T11:05:03.249Z,52.97
2019-03-31T11:07:36.087Z,53.60
2019-03-31T11:10:07.270Z,53.40
2019-03-31T11:12:38.187Z,55.20
2019-03-31T11:15:09.263Z,52.87
2019-03-31T11:17:40.166Z,52.10
2019-03-31T11:20:11.086Z,52.37
2019-03-31T11:22:53.391Z,53.03
2019-03-31T11:25:27.627Z,55.07
2019-03-31T11:27:58.010Z,53.33
2019-03-31T11:30:28.865Z,54.90
2019-03-31T11:33:00.011Z,53.33
2019-03-31T11:35:32.059Z,48.83
2019-03-31T11:38:03.058Z,53.87
2019-03-31T11:40:36.282Z,53.13
2019-03-31T11:43:07.561Z,54.93
2019-03-31T11:45:40.045Z,53.67
2019-03-31T11:48:11.055Z,51.83
2019-03-31T11:50:43.453Z,53.93
2019-03-31T11:53:14.496Z,51.07
2019-03-31T11:55:46.383Z,55.30
2019-03-31T11:58:17.309Z,54.77
2019-03-31T12:00:53.524Z,50.53
2019-03-31T12:03:24.582Z,52.53
2019-03-31T12:05:56.354Z,50.87
2019-03-31T12:08:27.367Z,46.17
2019-03-31T12:10:58.218Z,47.23
2019-03-31T12:13:29.089Z,49.97
2019-03-31T12:15:59.991Z,46.93
2019-03-31T12:18:30.942Z,46.00
2019-03-31T12:21:01.870Z,45.00
2019-03-31T12:23:32.724Z,49.23
2019-03-31T12:26:03.548Z,44.10
2019-03-31T12:28:35.165Z,43.93
2019-03-31T12:31:07.091Z,45.50
2019-03-31T12:33:37.923Z,45.93
2019-03-31T12:36:09.415Z,43.13
2019-03-31T12:38:40.293Z,37.70
2019-03-31T12:41:12.733Z,37.87
2019-03-31T12:43:43.667Z,44.80
2019-03-31T12:46:14.578Z,46.13
2019-03-31T12:48:46.961Z,41.77
2019-03-31T12:51:17.816Z,43.33
2019-03-31T12:53:51.199Z,38.60
2019-03-31T12:56:22.299Z,42.30
2019-03-31T12:58:53.138Z,42.57
2019-03-31T13:01:24.085Z,41.03
2019-03-31T13:03:55.004Z,40.33
2019-03-31T13:06:26.913Z,45.67
2019-03-31T13:08:57.770Z,40.63
2019-03-31T13:11:28.606Z,44.23
2019-03-31T13:13:59.488Z,41.93
2019-03-31T13:16:30.287Z,46.43
2019-03-31T13:19:01.362Z,43.97
2019-03-31T13:21:32.151Z,41.73
2019-03-31T13:24:03.058Z,47.03
2019-03-31T13:26:33.975Z,45.03
2019-03-31T13:29:05.110Z,45.37
2019-03-31T13:31:35.909Z,43.10
2019-03-31T13:34:09.112Z,42.47
2019-03-31T13:36:40.691Z,47.13
2019-03-31T13:39:12.570Z,42.27
2019-03-31T13:41:45.664Z,41.70
2019-03-31T13:44:16.082Z,38.30
2019-03-31T13:46:46.837Z,37.20
2019-03-31T13:49:17.878Z,39.43
2019-03-31T13:51:48.690Z,38.80
2019-03-31T13:54:19.559Z,38.93
2019-03-31T13:56:50.771Z,39.27
2019-03-31T13:59:22.458Z,42.10
2019-03-31T14:01:53.652Z,41.17
2019-03-31T14:04:24.537Z,39.63
2019-03-31T14:06:55.333Z,41.10
2019-03-31T14:09:26.167Z,45.63
2019-03-31T14:11:57.612Z,37.13
2019-03-31T14:14:28.550Z,40.47
2019-03-31T14:16:59.443Z,40.37
2019-03-31T14:19:31.239Z,37.60
2019-03-31T14:22:02.118Z,37.80
2019-03-31T14:24:33.216Z,36.87
2019-03-31T14:27:04.135Z,39.00
2019-03-31T14:29:35.091Z,39.60
2019-03-31T14:32:05.882Z,35.63
2019-03-31T14:34:39.319Z,34.50
2019-03-31T14:37:10.430Z,38.77
2019-03-31T14:39:41.375Z,35.37
2019-03-31T14:42:12.570Z,36.03
2019-03-31T14:44:43.406Z,31.40
2019-03-31T14:47:14.191Z,31.87
2019-03-31T14:49:45.184Z,27.97
2019-03-31T14:52:26.707Z,31.63
2019-03-31T14:54:48.647Z,32.27
2019-03-31T14:57:19.456Z,30.13
2019-03-31T14:59:52.562Z,30.67
2019-03-31T15:02:23.429Z,29.90
2019-03-31T15:04:54.429Z,33.47
2019-03-31T15:07:25.344Z,33.77
2019-03-31T15:09:56.416Z,35.27
2019-03-31T15:12:27.511Z,36.17
2019-03-31T15:14:58.805Z,37.87
2019-03-31T15:17:34.396Z,34.93
2019-03-31T15:20:07.105Z,37.63
2019-03-31T15:22:37.868Z,43.83
2019-03-31T15:25:19.578Z,31.60
2019-03-31T15:27:54.540Z,32.97
2019-03-31T15:30:25.429Z,30.07
2019-03-31T15:32:56.254Z,31.27
2019-03-31T15:35:27.545Z,29.20
2019-03-31T15:38:00.232Z,27.93
2019-03-31T15:40:31.035Z,27.30
2019-03-31T15:43:01.853Z,25.40
2019-03-31T15:45:32.780Z,19.17
2019-03-31T15:48:04.673Z,22.83
2019-03-31T15:50:35.534Z,18.93
2019-03-31T15:53:06.314Z,22.07
2019-03-31T15:55:37.637Z,18.87
2019-03-31T15:58:08.861Z,22.67
2019-03-31T16:00:39.704Z,17.60
2019-03-31T16:03:10.428Z,20.57
2019-03-31T16:05:41.673Z,17.13
2019-03-31T16:08:12.038Z,18.80
2019-03-31T16:10:42.353Z,17.27
2019-03-31T16:13:12.569Z,14.37
2019-03-31T16:15:43.738Z,18.43
2019-03-31T16:18:14.085Z,18.70
2019-03-31T16:20:44.381Z,17.70
2019-03-31T16:23:14.646Z,16.13
2019-03-31T16:25:49.050Z,15.53
2019-03-31T16:28:19.663Z,18.37
2019-03-31T16:30:49.872Z,13.87
2019-03-31T16:33:20.138Z,14.90
2019-03-31T16:35:50.396Z,15.47
2019-03-31T16:38:21.187Z,14.63
2019-03-31T16:40:52.053Z,15.10
2019-03-31T16:43:22.270Z,15.67
2019-03-31T16:45:52.517Z,12.03
2019-03-31T16:48:22.791Z,13.17
2019-03-31T16:50:54.987Z,11.03
2019-03-31T16:53:25.201Z,11.73
2019-03-31T16:55:55.413Z,12.13
2019-03-31T16:58:25.778Z,11.53
2019-03-31T17:00:56.073Z,10.83
2019-03-31T17:03:26.356Z,11.90
2019-03-31T17:05:56.619Z,9.60
2019-03-31T17:08:26.831Z,12.97
2019-03-31T17:10:57.067Z,15.73
2019-03-31T17:13:27.389Z,9.63
2019-03-31T17:15:57.626Z,10.60
2019-03-31T17:18:27.878Z,10.33
2019-03-31T17:20:58.100Z,10.90
2019-03-31T17:23:28.417Z,9.23
2019-03-31T17:25:58.625Z,10.10
2019-03-31T17:28:28.818Z,9.43
2019-03-31T17:30:59.052Z,10.90
2019-03-31T17:33:30.377Z,6.97
2019-03-31T17:36:00.927Z,10.73
2019-03-31T17:38:31.463Z,8.27
2019-03-31T17:41:01.719Z,8.23
2019-03-31T17:43:32.137Z,12.40
2019-03-31T17:46:02.480Z,9.90
2019-03-31T17:48:32.690Z,8.57
2019-03-31T17:51:02.949Z,11.83
2019-03-31T17:53:33.152Z,9.10
2019-03-31T17:56:03.421Z,8.67
2019-03-31T17:58:33.676Z,7.10
2019-03-31T18:01:03.854Z,6.63
2019-03-31T18:03:34.123Z,11.30
2019-03-31T18:06:04.380Z,8.00
2019-03-31T18:08:34.588Z,10.30
2019-03-31T18:11:04.957Z,6.93
2019-03-31T18:13:35.260Z,9.13
2019-03-31T18:16:05.436Z,6.07
2019-03-31T18:18:35.752Z,4.70
2019-03-31T18:21:06.118Z,5.73
2019-03-31T18:23:36.300Z,9.97
2019-03-31T18:26:07.483Z,7.70
2019-03-31T18:28:37.743Z,6.73
2019-03-31T18:31:11.213Z,5.93
2019-03-31T18:33:41.460Z,9.10
2019-03-31T18:36:11.708Z,7.23
2019-03-31T18:38:42.118Z,7.50
2019-03-31T18:41:12.657Z,8.87
2019-03-31T18:43:51.387Z,8.30
2019-03-31T18:46:14.891Z,6.70
2019-03-31T18:48:45.210Z,8.37
2019-03-31T18:51:15.457Z,13.80
2019-03-31T18:54:07.528Z,10.90
2019-03-31T18:56:59.771Z,9.13
2019-03-31T19:00:01.102Z,8.90
2019-03-31T19:03:05.749Z,10.33
2019-03-31T19:05:57.994Z,12.43
2019-03-31T19:08:41.423Z,11.70
2019-03-31T19:11:29.683Z,11.63
2019-03-31T19:14:17.979Z,8.53
2019-03-31T19:16:57.973Z,6.67
2019-03-31T19:19:59.994Z,7.57
2019-03-31T19:22:40.479Z,8.43
2019-03-31T19:25:39.515Z,10.90
2019-03-31T19:28:40.503Z,8.50
2019-03-31T19:31:32.514Z,8.13
2019-03-31T19:34:20.479Z,8.83
2019-03-31T19:37:05.055Z,8.97
2019-03-31T19:39:58.588Z,8.27
2019-03-31T19:42:56.823Z,11.57
2019-03-31T19:45:49.430Z,9.07
2019-03-31T19:48:44.509Z,9.37
2019-03-31T19:51:36.491Z,12.97
2019-03-31T19:54:32.732Z,10.03
2019-03-31T19:57:37.218Z,10.40
2019-03-31T20:00:26.690Z,11.13
2019-03-31T20:03:21.733Z,12.83
2019-03-31T20:06:04.310Z,7.50
2019-03-31T20:08:53.625Z,10.67
2019-03-31T20:11:32.697Z,8.00
2019-03-31T20:14:12.381Z,8.40
2019-03-31T20:16:59.568Z,10.63
2019-03-31T20:19:57.873Z,10.77
2019-03-31T20:22:35.599Z,9.33
2019-03-31T20:25:42.991Z,9.60
2019-03-31T20:28:31.026Z,10.57
2019-03-31T20:31:20.356Z,10.00
2019-03-31T20:34:08.328Z,10.10
2019-03-31T20:36:49.933Z,10.83
2019-03-31T20:39:57.551Z,9.73
2019-03-31T20:42:49.979Z,9.67
2019-03-31T20:45:20.263Z,7.90
2019-03-31T20:47:50.484Z,10.00
2019-03-31T20:50:20.838Z,10.23
2019-03-31T20:52:51.035Z,11.00
2019-03-31T20:55:21.381Z,10.50
2019-03-31T20:57:52.656Z,13.87
2019-03-31T21:00:22.906Z,13.03
2019-03-31T21:02:53.568Z,11.20
2019-03-31T21:05:23.819Z,9.50
2019-03-31T21:07:54.061Z,11.20
2019-03-31T21:10:24.258Z,17.97
2019-03-31T21:12:54.450Z,11.40
2019-03-31T21:15:24.824Z,8.70
2019-03-31T21:17:56.115Z,10.67
2019-03-31T21:20:26.356Z,9.33
2019-03-31T21:22:56.569Z,8.60
2019-03-31T21:25:26.784Z,10.90
2019-03-31T21:27:57.083Z,10.73
2019-03-31T21:30:27.344Z,10.07
2019-03-31T21:32:57.605Z,13.23
2019-03-31T21:35:29.191Z,10.97
2019-03-31T21:37:59.411Z,12.63
2019-03-31T21:40:31.113Z,9.67
2019-03-31T21:43:03.160Z,9.53
2019-03-31T21:45:33.447Z,9.70
2019-03-31T21:48:03.706Z,8.60
2019-03-31T21:50:33.933Z,10.77
2019-03-31T21:53:04.118Z,9.53
2019-03-31T21:55:34.377Z,14.53
2019-03-31T21:58:04.603Z,8.03
2019-03-31T22:00:50.898Z,10.97
2019-03-31T22:03:22.694Z,8.13
2019-03-31T22:05:52.948Z,8.63
2019-03-31T22:08:23.207Z,10.40
2019-03-31T22:10:53.793Z,11.53
2019-03-31T22:13:24.008Z,11.00
2019-03-31T22:15:54.249Z,10.43
2019-03-31T22:18:24.624Z,9.87
2019-03-31T22:20:54.813Z,8.93
2019-03-31T22:23:25.015Z,11.10
2019-03-31T22:25:55.285Z,10.43
2019-03-31T22:28:25.703Z,7.73
2019-03-31T22:30:55.951Z,7.37
2019-03-31T22:33:26.223Z,9.97
2019-03-31T22:36:14.381Z,12.43
2019-03-31T22:38:44.643Z,11.60
2019-03-31T22:41:14.823Z,10.17
2019-03-31T22:43:46.264Z,9.27
2019-03-31T22:46:16.667Z,9.17
2019-03-31T22:48:47.013Z,9.93
2019-03-31T22:51:17.229Z,7.50
2019-03-31T22:53:47.440Z,6.57
2019-03-31T22:56:17.675Z,13.07
2019-03-31T22:58:47.918Z,6.80
2019-03-31T23:01:18.293Z,13.43
2019-03-31T23:03:48.499Z,6.03
2019-03-31T23:06:18.677Z,9.50
2019-03-31T23:08:48.870Z,10.67
2019-03-31T23:11:19.090Z,13.13
2019-03-31T23:13:49.280Z,13.87
2019-03-31T23:16:20.733Z,12.50
2019-03-31T23:18:50.931Z,5.60
2019-03-31T23:21:21.178Z,10.43
2019-03-31T23:23:51.380Z,10.10
2019-03-31T23:26:21.548Z,11.23
2019-03-31T23:28:51.737Z,6.17
2019-03-31T23:31:21.961Z,8.80
2019-03-31T23:33:52.206Z,9.73
2019-03-31T23:36:22.413Z,8.47
2019-03-31T23:38:52.649Z,14.03
2019-03-31T23:41:23.927Z,9.57
2019-03-31T23:43:54.710Z,14.93
2019-03-31T23:46:24.907Z,16.27
2019-03-31T23:48:55.104Z,9.33
2019-03-31T23:51:25.272Z,15.10
2019-03-31T23:53:55.527Z,11.70
2019-03-31T23:56:25.711Z,12.40
2019-03-31T23:58:56.455Z,8.30
